Terminal Aerodrome Forecast
Issued by NWS Newport/Morehead City, NC

Home | Current Version | Previous Version | Text Only | Print | Product List | Glossary On
Versions: 1 2 3 4 5 6 7 8 9 10 11 12 13 14 15
000
FTUS42 KMHX 031000 AAA
TAFEWN
TAF AMD
KEWN 031000Z 0310/0406 22006KT P6SM VCSH BKN020
     FM031600 23012G20KT P6SM VCTS BKN050CB
     FM040300 20005KT P6SM VCSH SCT010 BKN100=

USA.gov is the U.S. government's official web portal to all federal, state and local government web resources and services.